MSC Leanne — 3EXH3 — position and weather

sailwx.info

Track history (hours):
 
Tides and Currents Weather Stations Pressure Air Temp Water Temp Dewpoint Dewpoint Depression Visibility Wind Speed Wind Dir Waves Ship Positions

MSC Leanne

Last reported at 2014-Oct-14 20:21 UTC. Time now 2014-Oct-25 10:13 UTC.
Position N 32°02' W 080°53'.
Warning: this ship's position is 10 days out of date.

Length 294 m; draft 10.3 m.

Type: Ship (hazmat cat A). MMSI: 357723000.

Date/timePositionNaut miles runAvg speedWind from/ knotsBaromVisibWave heightAir tempDewpointWater temp
2014-Oct-14 20:21N 32°02' W 080°53'911.4
2014-Oct-14 19:34N 32°05' W 081°04'5 4.6
2014-Oct-14 18:33N 32°07' W 081°08'0 0.0
2014-Oct-14 17:31N 32°07' W 081°08'0 0.0
2014-Oct-14 16:33N 32°07' W 081°08'0 0.0
2014-Oct-14 15:30N 32°07' W 081°08'0 0.0
2014-Oct-14 13:27N 32°07' W 081°08'0 0.0
2014-Oct-14 12:33N 32°07' W 081°08'0 0.0
2014-Oct-14 11:30N 32°07' W 081°08'0 0.0
2014-Oct-14 10:31N 32°07' W 081°08'0 0.0
2014-Oct-14 09:28N 32°07' W 081°08'0 0.0
2014-Oct-14 08:30N 32°07' W 081°08'0 0.1
2014-Oct-14 07:34N 32°08' W 081°08'3 3.2
2014-Oct-14 06:33N 32°05' W 081°06'9 9.1
2014-Oct-14 05:33N 32°02' W 080°55'  
2014-Oct-11 20:10N 36°47' W 075°44'1116.9
2014-Oct-11 19:32N 36°54' W 075°55'1515.1
2014-Oct-11 18:32N 36°60' W 076°12'10 4.2
2014-Oct-11 16:08N 36°53' W 076°21'0 0.0
2014-Oct-11 15:14N 36°53' W 076°21'0 0.0
2014-Oct-11 14:32N 36°53' W 076°21'0 0.0
2014-Oct-11 13:17N 36°53' W 076°21'0 0.0
2014-Oct-11 11:18N 36°53' W 076°21'5 5.6
2014-Oct-11 10:24N 36°58' W 076°20'10 9.1
2014-Oct-11 09:19N 36°59' W 076°08'8 9.5
2014-Oct-11 08:31N 36°56' W 075°59'7 7.2
2014-Oct-11 07:33N 36°53' W 075°52'1110.5
2014-Oct-11 06:32N 36°49' W 075°39'0 0.3
2014-Oct-11 05:24N 36°49' W 075°39'0 0.0
2014-Oct-11 04:06N 36°49' W 075°39'0 0.0
2014-Oct-11 01:33N 36°49' W 075°39'0 0.0
2014-Oct-10 22:27N 36°49' W 075°39'2 0.6
2014-Oct-10 19:33N 36°51' W 075°40'2 2.1
2014-Oct-10 18:30N 36°52' W 075°42'1111.2
2014-Oct-10 17:33N 36°54' W 075°55'1313.0
2014-Oct-10 16:31N 37°04' W 076°06'1514.7
2014-Oct-10 15:32N 37°19' W 076°06'10016.7
2014-Oct-10 09:33N 38°57' W 076°23'1313.3
2014-Oct-10 08:33N 39°11' W 076°26'7 6.9
2014-Oct-10 07:33N 39°15' W 076°33'0 0.2
2014-Oct-10 06:32N 39°15' W 076°33'0 0.0
2014-Oct-10 05:32N 39°15' W 076°33'0 0.0
2014-Oct-10 04:32N 39°15' W 076°33'0 0.0
2014-Oct-10 03:32N 39°15' W 076°33'0 0.0
2014-Oct-10 02:32N 39°15' W 076°33'0 0.0
2014-Oct-10 01:32N 39°15' W 076°33'0 0.0
2014-Oct-10 00:32N 39°15' W 076°33'0 0.0
2014-Oct-09 23:32N 39°15' W 076°33'0 0.0
2014-Oct-09 22:29N 39°15' W 076°33'0 0.0
2014-Oct-09 21:32N 39°15' W 076°33'0 0.0
2014-Oct-09 20:32N 39°15' W 076°33'0 0.2
2014-Oct-09 19:33N 39°15' W 076°32'6 6.2
2014-Oct-09 18:33N 39°11' W 076°27'1312.8
2014-Oct-09 17:34N 38°58' W 076°23'10016.5
2014-Oct-09 11:29N 37°19' W 076°06'1515.4
2014-Oct-09 10:33N 37°04' W 076°06'1413.9
2014-Oct-09 09:32N 36°54' W 075°54'1312.6
2014-Oct-09 08:32N 36°49' W 075°39'39615.6
2014-Oct-08 07:05N 41°14' W 069°20'6718.5
2014-Oct-08 03:29N 42°14' W 070°00'2216.9
2014-Oct-08 02:09N 42°18' W 070°30'1117.6
2014-Oct-08 01:33N 42°21' W 070°44'1210.6
2014-Oct-08 00:23N 42°20' W 071°00'1 0.4
2014-Oct-07 22:04N 42°21' W 071°01'0 0.0
2014-Oct-07 21:31N 42°21' W 071°01'4 0.4
2014-Oct-07 11:31N 42°21' W 070°56'9 8.7
2014-Oct-07 10:32N 42°24' W 070°45'1514.6
2014-Oct-07 09:30N 42°21' W 070°25'1816.1
2014-Oct-07 08:25N 42°21' W 070°02'1616.2
2014-Oct-07 07:25N 42°06' W 069°51'1816.3
2014-Oct-07 06:17N 41°50' W 069°40'1316.1
2014-Oct-07 05:30N 41°39' W 069°32'1515.9
2014-Oct-07 04:34N 41°25' W 069°23'1616.0
2014-Oct-07 03:33N 41°11' W 069°14'1615.9
2014-Oct-07 02:33N 40°57' W 069°04'4312.5
2014-Oct-06 23:09N 40°26' W 069°43'7716.3
2014-Oct-06 18:25N 40°24' W 071°24'1416.3
2014-Oct-06 17:33N 40°24' W 071°42'1616.3
2014-Oct-06 16:33N 40°23' W 072°04'1616.2
2014-Oct-06 15:33N 40°23' W 072°25'1716.8
2014-Oct-06 14:32N 40°22' W 072°47'1717.0
2014-Oct-06 13:33N 40°22' W 073°09'1717.2
2014-Oct-06 12:32N 40°25' W 073°32'1514.9
2014-Oct-06 11:33N 40°28' W 073°51'1313.1
2014-Oct-06 10:33N 40°37' W 074°03'5 5.2
2014-Oct-06 09:33N 40°40' W 074°08'1 0.9
2014-Oct-06 08:26N 40°41' W 074°09'0 0.0
2014-Oct-06 07:29N 40°41' W 074°09'0 0.0
2014-Oct-06 06:32N 40°41' W 074°09'0 0.0
2014-Oct-06 05:29N 40°41' W 074°09'0 0.0
2014-Oct-06 04:32N 40°41' W 074°09'0 0.0
2014-Oct-06 03:32N 40°41' W 074°09'0 0.0
2014-Oct-06 02:32N 40°41' W 074°09'0 0.0
2014-Oct-06 01:23N 40°41' W 074°09'0 0.0
2014-Oct-06 00:26N 40°41' W 074°09'0 0.0
2014-Oct-05 23:32N 40°41' W 074°09'1 0.1
2014-Oct-05 09:27N 40°40' W 074°08'22 7.6
2014-Oct-05 06:30N 40°28' W 073°44'3 0.4
2014-Oct-04 22:28N 40°29' W 073°40'  
Track history (hours):
 
Tides and Currents Weather Stations Pressure Air Temp Water Temp Dewpoint Dewpoint Depression Visibility Wind Speed Wind Dir Waves Ship Positions

MSC Leanne

Last reported at 2014-Oct-14 20:21 UTC. Time now 2014-Oct-25 10:13 UTC.
Position N 32°02' W 080°53'.
Warning: this ship's position is 10 days out of date.

Length 294 m; draft 10.3 m.

Type: Ship (hazmat cat A). MMSI: 357723000.

Date/timePositionNaut miles runAvg speedWind from/ knotsBaromVisibWave heightAir tempDewpointWater temp
2014-Oct-14 20:21N 32°02' W 080°53'911.4
2014-Oct-14 19:34N 32°05' W 081°04'5 4.6
2014-Oct-14 18:33N 32°07' W 081°08'0 0.0
2014-Oct-14 17:31N 32°07' W 081°08'0 0.0
2014-Oct-14 16:33N 32°07' W 081°08'0 0.0
2014-Oct-14 15:30N 32°07' W 081°08'0 0.0
2014-Oct-14 13:27N 32°07' W 081°08'0 0.0
2014-Oct-14 12:33N 32°07' W 081°08'0 0.0
2014-Oct-14 11:30N 32°07' W 081°08'0 0.0
2014-Oct-14 10:31N 32°07' W 081°08'0 0.0
2014-Oct-14 09:28N 32°07' W 081°08'0 0.0
2014-Oct-14 08:30N 32°07' W 081°08'0 0.1
2014-Oct-14 07:34N 32°08' W 081°08'3 3.2
2014-Oct-14 06:33N 32°05' W 081°06'9 9.1
2014-Oct-14 05:33N 32°02' W 080°55'  
2014-Oct-11 20:10N 36°47' W 075°44'1116.9
2014-Oct-11 19:32N 36°54' W 075°55'1515.1
2014-Oct-11 18:32N 36°60' W 076°12'10 4.2
2014-Oct-11 16:08N 36°53' W 076°21'0 0.0
2014-Oct-11 15:14N 36°53' W 076°21'0 0.0
2014-Oct-11 14:32N 36°53' W 076°21'0 0.0
2014-Oct-11 13:17N 36°53' W 076°21'0 0.0
2014-Oct-11 11:18N 36°53' W 076°21'5 5.6
2014-Oct-11 10:24N 36°58' W 076°20'10 9.1
2014-Oct-11 09:19N 36°59' W 076°08'8 9.5
2014-Oct-11 08:31N 36°56' W 075°59'7 7.2
2014-Oct-11 07:33N 36°53' W 075°52'1110.5
2014-Oct-11 06:32N 36°49' W 075°39'0 0.3
2014-Oct-11 05:24N 36°49' W 075°39'0 0.0
2014-Oct-11 04:06N 36°49' W 075°39'0 0.0
2014-Oct-11 01:33N 36°49' W 075°39'0 0.0
2014-Oct-10 22:27N 36°49' W 075°39'2 0.6
2014-Oct-10 19:33N 36°51' W 075°40'2 2.1
2014-Oct-10 18:30N 36°52' W 075°42'1111.2
2014-Oct-10 17:33N 36°54' W 075°55'1313.0
2014-Oct-10 16:31N 37°04' W 076°06'1514.7
2014-Oct-10 15:32N 37°19' W 076°06'10016.7
2014-Oct-10 09:33N 38°57' W 076°23'1313.3
2014-Oct-10 08:33N 39°11' W 076°26'7 6.9
2014-Oct-10 07:33N 39°15' W 076°33'0 0.2
2014-Oct-10 06:32N 39°15' W 076°33'0 0.0
2014-Oct-10 05:32N 39°15' W 076°33'0 0.0
2014-Oct-10 04:32N 39°15' W 076°33'0 0.0
2014-Oct-10 03:32N 39°15' W 076°33'0 0.0
2014-Oct-10 02:32N 39°15' W 076°33'0 0.0
2014-Oct-10 01:32N 39°15' W 076°33'0 0.0
2014-Oct-10 00:32N 39°15' W 076°33'0 0.0
2014-Oct-09 23:32N 39°15' W 076°33'0 0.0
2014-Oct-09 22:29N 39°15' W 076°33'0 0.0
2014-Oct-09 21:32N 39°15' W 076°33'0 0.0
2014-Oct-09 20:32N 39°15' W 076°33'0 0.2
2014-Oct-09 19:33N 39°15' W 076°32'6 6.2
2014-Oct-09 18:33N 39°11' W 076°27'1312.8
2014-Oct-09 17:34N 38°58' W 076°23'10016.5
2014-Oct-09 11:29N 37°19' W 076°06'1515.4
2014-Oct-09 10:33N 37°04' W 076°06'1413.9
2014-Oct-09 09:32N 36°54' W 075°54'1312.6
2014-Oct-09 08:32N 36°49' W 075°39'39615.6
2014-Oct-08 07:05N 41°14' W 069°20'6718.5
2014-Oct-08 03:29N 42°14' W 070°00'2216.9
2014-Oct-08 02:09N 42°18' W 070°30'1117.6
2014-Oct-08 01:33N 42°21' W 070°44'1210.6
2014-Oct-08 00:23N 42°20' W 071°00'1 0.4
2014-Oct-07 22:04N 42°21' W 071°01'0 0.0
2014-Oct-07 21:31N 42°21' W 071°01'4 0.4
2014-Oct-07 11:31N 42°21' W 070°56'9 8.7
2014-Oct-07 10:32N 42°24' W 070°45'1514.6
2014-Oct-07 09:30N 42°21' W 070°25'1816.1
2014-Oct-07 08:25N 42°21' W 070°02'1616.2
2014-Oct-07 07:25N 42°06' W 069°51'1816.3
2014-Oct-07 06:17N 41°50' W 069°40'1316.1
2014-Oct-07 05:30N 41°39' W 069°32'1515.9
2014-Oct-07 04:34N 41°25' W 069°23'1616.0
2014-Oct-07 03:33N 41°11' W 069°14'1615.9
2014-Oct-07 02:33N 40°57' W 069°04'4312.5
2014-Oct-06 23:09N 40°26' W 069°43'7716.3
2014-Oct-06 18:25N 40°24' W 071°24'1416.3
2014-Oct-06 17:33N 40°24' W 071°42'1616.3
2014-Oct-06 16:33N 40°23' W 072°04'1616.2
2014-Oct-06 15:33N 40°23' W 072°25'1716.8
2014-Oct-06 14:32N 40°22' W 072°47'1717.0
2014-Oct-06 13:33N 40°22' W 073°09'1717.2
2014-Oct-06 12:32N 40°25' W 073°32'1514.9
2014-Oct-06 11:33N 40°28' W 073°51'1313.1
2014-Oct-06 10:33N 40°37' W 074°03'5 5.2
2014-Oct-06 09:33N 40°40' W 074°08'1 0.9
2014-Oct-06 08:26N 40°41' W 074°09'0 0.0
2014-Oct-06 07:29N 40°41' W 074°09'0 0.0
2014-Oct-06 06:32N 40°41' W 074°09'0 0.0
2014-Oct-06 05:29N 40°41' W 074°09'0 0.0
2014-Oct-06 04:32N 40°41' W 074°09'0 0.0
2014-Oct-06 03:32N 40°41' W 074°09'0 0.0
2014-Oct-06 02:32N 40°41' W 074°09'0 0.0
2014-Oct-06 01:23N 40°41' W 074°09'0 0.0
2014-Oct-06 00:26N 40°41' W 074°09'0 0.0
2014-Oct-05 23:32N 40°41' W 074°09'1 0.1
2014-Oct-05 09:27N 40°40' W 074°08'22 7.6
2014-Oct-05 06:30N 40°28' W 073°44'3 0.4
2014-Oct-04 22:28N 40°29' W 073°40'  

Dump ship's entire track history